sensor_id;sensor_type;location;lat;lon;timestamp;temperature;humidity
2226;DHT22;1119;48.288;8.726;2023-05-07T00:00:25;16.20;91.60
2226;DHT22;1119;48.288;8.726;2023-05-07T00:03:13;16.30;91.80
2226;DHT22;1119;48.288;8.726;2023-05-07T00:06:00;16.30;91.70
2226;DHT22;1119;48.288;8.726;2023-05-07T00:08:48;16.30;91.80
2226;DHT22;1119;48.288;8.726;2023-05-07T00:11:36;16.30;91.90
2226;DHT22;1119;48.288;8.726;2023-05-07T00:14:25;16.20;92.10
2226;DHT22;1119;48.288;8.726;2023-05-07T00:17:13;16.20;91.70
2226;DHT22;1119;48.288;8.726;2023-05-07T00:20:01;16.30;91.70
2226;DHT22;1119;48.288;8.726;2023-05-07T00:22:49;16.30;91.70
2226;DHT22;1119;48.288;8.726;2023-05-07T00:25:37;16.20;91.80
2226;DHT22;1119;48.288;8.726;2023-05-07T00:28:25;16.30;92.10
2226;DHT22;1119;48.288;8.726;2023-05-07T00:31:14;16.20;92.10
2226;DHT22;1119;48.288;8.726;2023-05-07T00:34:02;16.10;92.10
2226;DHT22;1119;48.288;8.726;2023-05-07T00:36:49;16.00;92.30
2226;DHT22;1119;48.288;8.726;2023-05-07T00:39:37;16.10;92.60
2226;DHT22;1119;48.288;8.726;2023-05-07T00:42:25;16.10;92.70
2226;DHT22;1119;48.288;8.726;2023-05-07T00:45:14;16.00;92.70
2226;DHT22;1119;48.288;8.726;2023-05-07T00:48:04;16.10;92.80
2226;DHT22;1119;48.288;8.726;2023-05-07T00:50:52;16.10;92.80
2226;DHT22;1119;48.288;8.726;2023-05-07T00:53:40;16.10;92.90
2226;DHT22;1119;48.288;8.726;2023-05-07T00:56:28;16.20;92.90
2226;DHT22;1119;48.288;8.726;2023-05-07T00:59:16;16.10;92.60
2226;DHT22;1119;48.288;8.726;2023-05-07T01:02:03;16.10;92.70
2226;DHT22;1119;48.288;8.726;2023-05-07T01:04:52;16.10;92.70
2226;DHT22;1119;48.288;8.726;2023-05-07T01:07:41;16.00;92.80
2226;DHT22;1119;48.288;8.726;2023-05-07T01:10:30;16.00;92.90
2226;DHT22;1119;48.288;8.726;2023-05-07T01:13:18;16.00;93.00
2226;DHT22;1119;48.288;8.726;2023-05-07T01:16:08;15.90;93.10
2226;DHT22;1119;48.288;8.726;2023-05-07T01:18:56;15.80;93.40
2226;DHT22;1119;48.288;8.726;2023-05-07T01:21:48;15.80;93.50
2226;DHT22;1119;48.288;8.726;2023-05-07T01:24:40;15.70;93.60
2226;DHT22;1119;48.288;8.726;2023-05-07T01:27:28;15.80;93.90
2226;DHT22;1119;48.288;8.726;2023-05-07T01:30:16;15.70;93.80
2226;DHT22;1119;48.288;8.726;2023-05-07T01:33:09;15.70;93.80
2226;DHT22;1119;48.288;8.726;2023-05-07T01:35:59;15.70;93.90
2226;DHT22;1119;48.288;8.726;2023-05-07T01:38:48;15.70;93.70
2226;DHT22;1119;48.288;8.726;2023-05-07T01:41:37;15.70;93.60
2226;DHT22;1119;48.288;8.726;2023-05-07T01:44:26;15.60;93.50
2226;DHT22;1119;48.288;8.726;2023-05-07T01:47:14;15.70;93.70
2226;DHT22;1119;48.288;8.726;2023-05-07T01:50:04;15.70;93.90
2226;DHT22;1119;48.288;8.726;2023-05-07T01:52:54;15.70;94.10
2226;DHT22;1119;48.288;8.726;2023-05-07T01:55:43;15.50;94.20
2226;DHT22;1119;48.288;8.726;2023-05-07T01:58:33;15.50;94.50
2226;DHT22;1119;48.288;8.726;2023-05-07T02:01:21;15.50;94.70
2226;DHT22;1119;48.288;8.726;2023-05-07T02:04:09;15.40;94.70
2226;DHT22;1119;48.288;8.726;2023-05-07T02:06:57;15.30;95.10
2226;DHT22;1119;48.288;8.726;2023-05-07T02:09:45;15.40;95.00
2226;DHT22;1119;48.288;8.726;2023-05-07T02:12:33;15.30;95.20
2226;DHT22;1119;48.288;8.726;2023-05-07T02:15:22;15.30;95.10
2226;DHT22;1119;48.288;8.726;2023-05-07T02:18:11;15.30;95.20
2226;DHT22;1119;48.288;8.726;2023-05-07T02:20:59;15.30;95.20
2226;DHT22;1119;48.288;8.726;2023-05-07T02:23:47;15.40;95.20
2226;DHT22;1119;48.288;8.726;2023-05-07T02:26:34;15.30;95.00
2226;DHT22;1119;48.288;8.726;2023-05-07T02:29:22;15.30;95.00
2226;DHT22;1119;48.288;8.726;2023-05-07T02:32:13;15.40;95.10
2226;DHT22;1119;48.288;8.726;2023-05-07T02:35:00;15.40;95.00
2226;DHT22;1119;48.288;8.726;2023-05-07T02:37:48;15.40;94.80
2226;DHT22;1119;48.288;8.726;2023-05-07T02:40:36;15.40;94.80
2226;DHT22;1119;48.288;8.726;2023-05-07T02:43:27;15.40;94.80
2226;DHT22;1119;48.288;8.726;2023-05-07T02:46:15;15.30;95.10
2226;DHT22;1119;48.288;8.726;2023-05-07T02:49:09;15.30;95.20
2226;DHT22;1119;48.288;8.726;2023-05-07T02:51:56;15.30;95.50
2226;DHT22;1119;48.288;8.726;2023-05-07T02:54:44;15.40;95.60
2226;DHT22;1119;48.288;8.726;2023-05-07T02:57:32;15.30;95.60
2226;DHT22;1119;48.288;8.726;2023-05-07T03:00:20;15.30;95.60
2226;DHT22;1119;48.288;8.726;2023-05-07T03:03:29;15.10;95.60
2226;DHT22;1119;48.288;8.726;2023-05-07T03:06:18;15.10;95.80
2226;DHT22;1119;48.288;8.726;2023-05-07T03:09:05;15.10;95.90
2226;DHT22;1119;48.288;8.726;2023-05-07T03:11:56;15.10;95.90
2226;DHT22;1119;48.288;8.726;2023-05-07T03:14:44;15.00;95.80
2226;DHT22;1119;48.288;8.726;2023-05-07T03:17:31;14.80;96.00
2226;DHT22;1119;48.288;8.726;2023-05-07T03:20:19;14.70;96.20
2226;DHT22;1119;48.288;8.726;2023-05-07T03:23:08;14.50;96.80
2226;DHT22;1119;48.288;8.726;2023-05-07T03:25:56;14.40;97.40
2226;DHT22;1119;48.288;8.726;2023-05-07T03:28:44;14.40;97.70
2226;DHT22;1119;48.288;8.726;2023-05-07T03:31:34;14.40;98.00
2226;DHT22;1119;48.288;8.726;2023-05-07T03:34:22;14.30;98.50
2226;DHT22;1119;48.288;8.726;2023-05-07T03:37:10;14.30;98.80
2226;DHT22;1119;48.288;8.726;2023-05-07T03:39:59;14.10;99.40
2226;DHT22;1119;48.288;8.726;2023-05-07T03:42:48;13.90;99.90
2226;DHT22;1119;48.288;8.726;2023-05-07T03:45:38;13.70;99.90
2226;DHT22;1119;48.288;8.726;2023-05-07T03:48:31;13.50;99.90
2226;DHT22;1119;48.288;8.726;2023-05-07T03:51:19;13.40;99.90
2226;DHT22;1119;48.288;8.726;2023-05-07T03:54:07;13.10;99.90
2226;DHT22;1119;48.288;8.726;2023-05-07T03:56:57;13.10;99.90
2226;DHT22;1119;48.288;8.726;2023-05-07T03:59:45;12.90;99.90
2226;DHT22;1119;48.288;8.726;2023-05-07T04:02:33;12.80;99.90
2226;DHT22;1119;48.288;8.726;2023-05-07T04:05:23;12.70;99.90
2226;DHT22;1119;48.288;8.726;2023-05-07T04:08:16;12.60;99.90
2226;DHT22;1119;48.288;8.726;2023-05-07T04:11:08;12.50;99.90
2226;DHT22;1119;48.288;8.726;2023-05-07T04:13:58;12.60;99.90
2226;DHT22;1119;48.288;8.726;2023-05-07T04:16:46;12.60;99.90
2226;DHT22;1119;48.288;8.726;2023-05-07T04:19:34;12.70;99.90
2226;DHT22;1119;48.288;8.726;2023-05-07T04:22:22;12.70;99.90
2226;DHT22;1119;48.288;8.726;2023-05-07T04:25:10;12.80;99.90
2226;DHT22;1119;48.288;8.726;2023-05-07T04:27:58;13.00;99.90
2226;DHT22;1119;48.288;8.726;2023-05-07T04:30:49;13.10;99.90
2226;DHT22;1119;48.288;8.726;2023-05-07T04:33:38;13.10;99.90
2226;DHT22;1119;48.288;8.726;2023-05-07T04:36:29;13.20;99.90
2226;DHT22;1119;48.288;8.726;2023-05-07T04:39:23;13.20;99.90
2226;DHT22;1119;48.288;8.726;2023-05-07T04:42:14;13.30;99.90
2226;DHT22;1119;48.288;8.726;2023-05-07T04:45:04;13.20;99.90
2226;DHT22;1119;48.288;8.726;2023-05-07T04:47:56;13.10;99.90
2226;DHT22;1119;48.288;8.726;2023-05-07T04:50:43;13.00;99.90
2226;DHT22;1119;48.288;8.726;2023-05-07T04:53:33;13.00;99.90
2226;DHT22;1119;48.288;8.726;2023-05-07T04:56:21;13.00;99.90
2226;DHT22;1119;48.288;8.726;2023-05-07T04:59:09;13.00;99.90
2226;DHT22;1119;48.288;8.726;2023-05-07T05:01:57;13.00;99.90
2226;DHT22;1119;48.288;8.726;2023-05-07T05:04:47;13.00;99.90
2226;DHT22;1119;48.288;8.726;2023-05-07T05:07:35;13.10;99.90
2226;DHT22;1119;48.288;8.726;2023-05-07T05:10:23;13.20;99.90
2226;DHT22;1119;48.288;8.726;2023-05-07T05:13:11;13.20;99.90
2226;DHT22;1119;48.288;8.726;2023-05-07T05:16:00;13.30;99.90
2226;DHT22;1119;48.288;8.726;2023-05-07T05:18:50;13.40;99.90
2226;DHT22;1119;48.288;8.726;2023-05-07T05:21:40;13.50;99.90
2226;DHT22;1119;48.288;8.726;2023-05-07T05:24:29;13.70;99.90
2226;DHT22;1119;48.288;8.726;2023-05-07T05:27:17;13.70;99.90
2226;DHT22;1119;48.288;8.726;2023-05-07T05:30:06;13.80;99.90
2226;DHT22;1119;48.288;8.726;2023-05-07T05:32:55;14.00;99.90
2226;DHT22;1119;48.288;8.726;2023-05-07T05:35:43;14.20;99.90
2226;DHT22;1119;48.288;8.726;2023-05-07T05:38:34;14.30;99.90
2226;DHT22;1119;48.288;8.726;2023-05-07T05:41:22;14.50;99.90
2226;DHT22;1119;48.288;8.726;2023-05-07T05:44:10;14.60;99.90
2226;DHT22;1119;48.288;8.726;2023-05-07T05:46:58;14.70;99.90
2226;DHT22;1119;48.288;8.726;2023-05-07T05:49:46;14.90;99.90
2226;DHT22;1119;48.288;8.726;2023-05-07T05:52:36;15.10;99.90
2226;DHT22;1119;48.288;8.726;2023-05-07T05:55:25;15.20;99.90
2226;DHT22;1119;48.288;8.726;2023-05-07T05:58:13;15.20;99.90
2226;DHT22;1119;48.288;8.726;2023-05-07T06:01:08;15.30;99.90
2226;DHT22;1119;48.288;8.726;2023-05-07T06:03:57;15.60;99.90
2226;DHT22;1119;48.288;8.726;2023-05-07T06:06:45;15.80;99.90
2226;DHT22;1119;48.288;8.726;2023-05-07T06:09:33;16.00;99.90
2226;DHT22;1119;48.288;8.726;2023-05-07T06:12:23;16.20;99.90
2226;DHT22;1119;48.288;8.726;2023-05-07T06:15:10;16.40;99.90
2226;DHT22;1119;48.288;8.726;2023-05-07T06:17:59;16.70;99.90
2226;DHT22;1119;48.288;8.726;2023-05-07T06:20:47;17.10;99.90
2226;DHT22;1119;48.288;8.726;2023-05-07T06:23:43;17.60;99.90
2226;DHT22;1119;48.288;8.726;2023-05-07T06:26:31;17.90;99.90
2226;DHT22;1119;48.288;8.726;2023-05-07T06:29:20;18.10;99.90
2226;DHT22;1119;48.288;8.726;2023-05-07T06:32:08;18.10;99.70
2226;DHT22;1119;48.288;8.726;2023-05-07T06:34:58;18.00;99.80
2226;DHT22;1119;48.288;8.726;2023-05-07T06:37:48;18.00;99.70
2226;DHT22;1119;48.288;8.726;2023-05-07T06:40:41;17.80;99.90
2226;DHT22;1119;48.288;8.726;2023-05-07T06:43:29;17.80;99.90
2226;DHT22;1119;48.288;8.726;2023-05-07T06:46:35;17.90;99.90
2226;DHT22;1119;48.288;8.726;2023-05-07T06:49:24;18.00;99.90
2226;DHT22;1119;48.288;8.726;2023-05-07T06:52:13;18.10;99.90
2226;DHT22;1119;48.288;8.726;2023-05-07T06:55:02;18.20;99.60
2226;DHT22;1119;48.288;8.726;2023-05-07T06:57:50;18.30;99.60
2226;DHT22;1119;48.288;8.726;2023-05-07T07:00:39;18.30;99.80
2226;DHT22;1119;48.288;8.726;2023-05-07T07:03:29;18.30;99.90
2226;DHT22;1119;48.288;8.726;2023-05-07T07:06:17;18.30;99.90
2226;DHT22;1119;48.288;8.726;2023-05-07T07:09:06;18.30;99.90
2226;DHT22;1119;48.288;8.726;2023-05-07T07:11:55;18.30;99.90
2226;DHT22;1119;48.288;8.726;2023-05-07T07:14:44;18.80;99.90
2226;DHT22;1119;48.288;8.726;2023-05-07T07:17:33;19.60;98.80
2226;DHT22;1119;48.288;8.726;2023-05-07T07:20:23;20.90;96.60
2226;DHT22;1119;48.288;8.726;2023-05-07T07:23:11;22.10;94.20
2226;DHT22;1119;48.288;8.726;2023-05-07T07:25:59;23.00;92.00
2226;DHT22;1119;48.288;8.726;2023-05-07T07:28:47;23.70;90.10
2226;DHT22;1119;48.288;8.726;2023-05-07T07:31:39;24.20;87.30
2226;DHT22;1119;48.288;8.726;2023-05-07T07:34:26;24.60;84.00
2226;DHT22;1119;48.288;8.726;2023-05-07T07:37:16;25.00;81.40
2226;DHT22;1119;48.288;8.726;2023-05-07T07:40:05;25.70;77.60
2226;DHT22;1119;48.288;8.726;2023-05-07T07:42:54;26.10;75.30
2226;DHT22;1119;48.288;8.726;2023-05-07T07:45:42;26.40;71.80
2226;DHT22;1119;48.288;8.726;2023-05-07T07:48:31;26.30;69.90
2226;DHT22;1119;48.288;8.726;2023-05-07T07:51:19;26.30;68.90
2226;DHT22;1119;48.288;8.726;2023-05-07T07:54:08;26.20;68.30
2226;DHT22;1119;48.288;8.726;2023-05-07T07:56:56;26.20;66.70
2226;DHT22;1119;48.288;8.726;2023-05-07T07:59:45;26.20;67.70
2226;DHT22;1119;48.288;8.726;2023-05-07T08:02:34;26.10;67.10
2226;DHT22;1119;48.288;8.726;2023-05-07T08:05:22;25.60;67.40
2226;DHT22;1119;48.288;8.726;2023-05-07T08:08:11;25.40;69.90
2226;DHT22;1119;48.288;8.726;2023-05-07T08:11:03;25.60;65.80
2226;DHT22;1119;48.288;8.726;2023-05-07T08:13:54;25.80;63.70
2226;DHT22;1119;48.288;8.726;2023-05-07T08:16:42;26.10;61.20
2226;DHT22;1119;48.288;8.726;2023-05-07T08:19:30;26.20;63.00
2226;DHT22;1119;48.288;8.726;2023-05-07T08:22:18;26.40;62.80
2226;DHT22;1119;48.288;8.726;2023-05-07T08:25:06;26.50;61.70
2226;DHT22;1119;48.288;8.726;2023-05-07T08:27:56;26.30;62.30
2226;DHT22;1119;48.288;8.726;2023-05-07T08:30:44;26.40;63.20
2226;DHT22;1119;48.288;8.726;2023-05-07T08:33:33;26.40;63.80
2226;DHT22;1119;48.288;8.726;2023-05-07T08:36:21;26.30;60.70
2226;DHT22;1119;48.288;8.726;2023-05-07T08:39:08;26.40;60.00
2226;DHT22;1119;48.288;8.726;2023-05-07T08:41:58;26.30;59.80
2226;DHT22;1119;48.288;8.726;2023-05-07T08:44:51;26.70;60.10
2226;DHT22;1119;48.288;8.726;2023-05-07T08:47:43;27.00;59.30
2226;DHT22;1119;48.288;8.726;2023-05-07T08:50:36;27.30;59.50
2226;DHT22;1119;48.288;8.726;2023-05-07T08:53:25;27.40;58.80
2226;DHT22;1119;48.288;8.726;2023-05-07T08:56:13;27.40;58.30
2226;DHT22;1119;48.288;8.726;2023-05-07T08:59:02;27.40;58.50
2226;DHT22;1119;48.288;8.726;2023-05-07T09:01:52;27.30;57.80
2226;DHT22;1119;48.288;8.726;2023-05-07T09:04:39;26.80;57.70
2226;DHT22;1119;48.288;8.726;2023-05-07T09:07:28;26.20;59.00
2226;DHT22;1119;48.288;8.726;2023-05-07T09:10:17;25.70;60.70
2226;DHT22;1119;48.288;8.726;2023-05-07T09:13:07;25.10;60.70
2226;DHT22;1119;48.288;8.726;2023-05-07T09:15:55;24.80;62.00
2226;DHT22;1119;48.288;8.726;2023-05-07T09:18:46;24.20;62.90
2226;DHT22;1119;48.288;8.726;2023-05-07T09:21:35;24.10;65.00
2226;DHT22;1119;48.288;8.726;2023-05-07T09:24:26;24.10;65.40
2226;DHT22;1119;48.288;8.726;2023-05-07T09:27:17;24.20;65.00
2226;DHT22;1119;48.288;8.726;2023-05-07T09:30:06;24.30;65.30
2226;DHT22;1119;48.288;8.726;2023-05-07T09:32:56;24.20;64.60
2226;DHT22;1119;48.288;8.726;2023-05-07T09:35:48;24.10;64.40
2226;DHT22;1119;48.288;8.726;2023-05-07T09:38:39;24.00;66.40
2226;DHT22;1119;48.288;8.726;2023-05-07T09:41:30;23.90;65.30
2226;DHT22;1119;48.288;8.726;2023-05-07T09:44:33;24.00;62.80
2226;DHT22;1119;48.288;8.726;2023-05-07T09:47:24;23.90;63.50
2226;DHT22;1119;48.288;8.726;2023-05-07T09:50:15;23.80;65.20
2226;DHT22;1119;48.288;8.726;2023-05-07T09:53:05;23.70;64.10
2226;DHT22;1119;48.288;8.726;2023-05-07T09:55:54;23.70;63.70
2226;DHT22;1119;48.288;8.726;2023-05-07T09:58:43;23.80;62.70
2226;DHT22;1119;48.288;8.726;2023-05-07T10:01:33;23.90;64.00
2226;DHT22;1119;48.288;8.726;2023-05-07T10:04:23;24.10;63.70
2226;DHT22;1119;48.288;8.726;2023-05-07T10:07:14;24.10;64.60
2226;DHT22;1119;48.288;8.726;2023-05-07T10:10:06;24.20;63.90
2226;DHT22;1119;48.288;8.726;2023-05-07T10:13:00;24.10;63.20
2226;DHT22;1119;48.288;8.726;2023-05-07T10:15:55;24.30;64.00
2226;DHT22;1119;48.288;8.726;2023-05-07T10:18:46;24.60;65.70
2226;DHT22;1119;48.288;8.726;2023-05-07T10:21:54;24.70;66.90
2226;DHT22;1119;48.288;8.726;2023-05-07T10:24:47;24.80;65.00
2226;DHT22;1119;48.288;8.726;2023-05-07T10:27:39;24.90;63.70
2226;DHT22;1119;48.288;8.726;2023-05-07T10:30:37;25.00;63.70
2226;DHT22;1119;48.288;8.726;2023-05-07T10:33:32;24.80;61.90
2226;DHT22;1119;48.288;8.726;2023-05-07T10:36:22;24.70;64.70
2226;DHT22;1119;48.288;8.726;2023-05-07T10:39:12;24.60;62.90
2226;DHT22;1119;48.288;8.726;2023-05-07T10:42:08;24.50;65.40
2226;DHT22;1119;48.288;8.726;2023-05-07T10:45:11;24.40;65.50
2226;DHT22;1119;48.288;8.726;2023-05-07T10:48:09;24.60;66.10
2226;DHT22;1119;48.288;8.726;2023-05-07T10:51:19;24.70;64.60
2226;DHT22;1119;48.288;8.726;2023-05-07T10:54:21;24.60;65.20
2226;DHT22;1119;48.288;8.726;2023-05-07T10:57:34;24.50;68.60
2226;DHT22;1119;48.288;8.726;2023-05-07T11:00:43;24.10;65.50
2226;DHT22;1119;48.288;8.726;2023-05-07T11:04:14;23.70;66.90
2226;DHT22;1119;48.288;8.726;2023-05-07T11:07:28;23.30;70.50
2226;DHT22;1119;48.288;8.726;2023-05-07T11:10:22;22.90;72.40
2226;DHT22;1119;48.288;8.726;2023-05-07T11:13:18;22.60;74.30
2226;DHT22;1119;48.288;8.726;2023-05-07T11:16:27;22.40;76.40
2226;DHT22;1119;48.288;8.726;2023-05-07T11:19:48;22.20;77.00
2226;DHT22;1119;48.288;8.726;2023-05-07T11:22:42;22.10;77.80
2226;DHT22;1119;48.288;8.726;2023-05-07T11:25:48;22.00;77.50
2226;DHT22;1119;48.288;8.726;2023-05-07T11:28:42;21.80;78.20
2226;DHT22;1119;48.288;8.726;2023-05-07T11:31:32;21.50;77.60
2226;DHT22;1119;48.288;8.726;2023-05-07T11:34:21;21.20;77.90
2226;DHT22;1119;48.288;8.726;2023-05-07T11:37:11;21.10;79.30
2226;DHT22;1119;48.288;8.726;2023-05-07T11:40:12;21.00;80.00
2226;DHT22;1119;48.288;8.726;2023-05-07T11:43:10;20.90;77.10
2226;DHT22;1119;48.288;8.726;2023-05-07T11:46:05;20.60;73.40
2226;DHT22;1119;48.288;8.726;2023-05-07T11:48:57;20.40;73.60
2226;DHT22;1119;48.288;8.726;2023-05-07T11:51:44;20.10;74.50
2226;DHT22;1119;48.288;8.726;2023-05-07T11:54:35;19.90;75.20
2226;DHT22;1119;48.288;8.726;2023-05-07T11:57:24;19.50;76.20
2226;DHT22;1119;48.288;8.726;2023-05-07T12:00:15;19.30;76.90
2226;DHT22;1119;48.288;8.726;2023-05-07T12:03:04;18.80;78.90
2226;DHT22;1119;48.288;8.726;2023-05-07T12:05:53;18.50;80.80
2226;DHT22;1119;48.288;8.726;2023-05-07T12:08:42;18.00;82.70
2226;DHT22;1119;48.288;8.726;2023-05-07T12:11:31;17.70;85.90
2226;DHT22;1119;48.288;8.726;2023-05-07T12:14:26;17.60;87.50
2226;DHT22;1119;48.288;8.726;2023-05-07T12:17:14;17.50;90.80
2226;DHT22;1119;48.288;8.726;2023-05-07T12:20:02;17.40;96.60
2226;DHT22;1119;48.288;8.726;2023-05-07T12:22:52;17.00;99.90
2226;DHT22;1119;48.288;8.726;2023-05-07T12:25:42;16.90;99.90
2226;DHT22;1119;48.288;8.726;2023-05-07T12:28:37;16.70;99.90
2226;DHT22;1119;48.288;8.726;2023-05-07T12:31:25;16.70;99.90
2226;DHT22;1119;48.288;8.726;2023-05-07T12:34:13;16.70;99.90
2226;DHT22;1119;48.288;8.726;2023-05-07T12:37:02;16.20;99.90
2226;DHT22;1119;48.288;8.726;2023-05-07T12:40:03;16.00;99.90
2226;DHT22;1119;48.288;8.726;2023-05-07T12:42:53;15.90;99.90
2226;DHT22;1119;48.288;8.726;2023-05-07T12:45:42;15.80;99.90
2226;DHT22;1119;48.288;8.726;2023-05-07T12:48:29;15.70;99.90
2226;DHT22;1119;48.288;8.726;2023-05-07T12:51:17;15.40;99.90
2226;DHT22;1119;48.288;8.726;2023-05-07T12:54:05;15.40;99.90
2226;DHT22;1119;48.288;8.726;2023-05-07T12:57:00;15.40;99.90
2226;DHT22;1119;48.288;8.726;2023-05-07T12:59:49;15.40;99.90
2226;DHT22;1119;48.288;8.726;2023-05-07T13:02:38;15.50;99.90
2226;DHT22;1119;48.288;8.726;2023-05-07T13:05:27;15.50;99.90
2226;DHT22;1119;48.288;8.726;2023-05-07T13:08:24;15.30;99.90
2226;DHT22;1119;48.288;8.726;2023-05-07T13:11:16;15.10;99.90
2226;DHT22;1119;48.288;8.726;2023-05-07T13:14:04;14.80;99.90
2226;DHT22;1119;48.288;8.726;2023-05-07T13:16:52;14.60;99.90
2226;DHT22;1119;48.288;8.726;2023-05-07T13:19:40;14.50;99.90
2226;DHT22;1119;48.288;8.726;2023-05-07T13:22:28;14.50;99.90
2226;DHT22;1119;48.288;8.726;2023-05-07T13:25:16;14.40;99.90
2226;DHT22;1119;48.288;8.726;2023-05-07T13:28:04;14.50;99.90
2226;DHT22;1119;48.288;8.726;2023-05-07T13:30:53;14.50;99.90
2226;DHT22;1119;48.288;8.726;2023-05-07T13:33:41;14.50;99.90
2226;DHT22;1119;48.288;8.726;2023-05-07T13:36:29;14.50;99.90
2226;DHT22;1119;48.288;8.726;2023-05-07T13:39:19;14.40;99.90
2226;DHT22;1119;48.288;8.726;2023-05-07T13:42:06;14.40;99.90
2226;DHT22;1119;48.288;8.726;2023-05-07T13:44:54;14.50;99.90
2226;DHT22;1119;48.288;8.726;2023-05-07T13:47:44;14.70;99.90
2226;DHT22;1119;48.288;8.726;2023-05-07T13:50:32;14.80;99.90
2226;DHT22;1119;48.288;8.726;2023-05-07T13:53:19;15.00;99.90
2226;DHT22;1119;48.288;8.726;2023-05-07T13:56:07;15.00;99.90
2226;DHT22;1119;48.288;8.726;2023-05-07T13:58:55;15.00;99.90
2226;DHT22;1119;48.288;8.726;2023-05-07T14:01:42;15.10;99.90
2226;DHT22;1119;48.288;8.726;2023-05-07T14:04:32;15.20;99.90
2226;DHT22;1119;48.288;8.726;2023-05-07T14:07:19;15.30;99.90
2226;DHT22;1119;48.288;8.726;2023-05-07T14:10:07;15.50;99.90
2226;DHT22;1119;48.288;8.726;2023-05-07T14:12:57;15.70;99.90
2226;DHT22;1119;48.288;8.726;2023-05-07T14:15:44;15.90;99.90
2226;DHT22;1119;48.288;8.726;2023-05-07T14:18:32;16.20;99.90
2226;DHT22;1119;48.288;8.726;2023-05-07T14:21:24;16.50;99.90
2226;DHT22;1119;48.288;8.726;2023-05-07T14:24:12;16.80;99.90
2226;DHT22;1119;48.288;8.726;2023-05-07T14:26:59;16.90;99.90
2226;DHT22;1119;48.288;8.726;2023-05-07T14:29:47;17.20;99.90
2226;DHT22;1119;48.288;8.726;2023-05-07T14:32:37;17.50;99.90
2226;DHT22;1119;48.288;8.726;2023-05-07T14:35:24;17.70;99.90
2226;DHT22;1119;48.288;8.726;2023-05-07T14:38:13;17.90;99.90
2226;DHT22;1119;48.288;8.726;2023-05-07T14:41:01;18.00;99.90
2226;DHT22;1119;48.288;8.726;2023-05-07T14:43:49;17.90;99.90
2226;DHT22;1119;48.288;8.726;2023-05-07T14:46:40;17.90;99.90
2226;DHT22;1119;48.288;8.726;2023-05-07T14:49:28;17.90;99.90
2226;DHT22;1119;48.288;8.726;2023-05-07T14:52:19;17.90;99.90
2226;DHT22;1119;48.288;8.726;2023-05-07T14:55:11;17.90;99.90
2226;DHT22;1119;48.288;8.726;2023-05-07T14:58:29;17.90;99.90
2226;DHT22;1119;48.288;8.726;2023-05-07T15:01:17;17.90;99.90
2226;DHT22;1119;48.288;8.726;2023-05-07T15:04:05;17.90;99.90
2226;DHT22;1119;48.288;8.726;2023-05-07T15:06:53;18.00;99.90
2226;DHT22;1119;48.288;8.726;2023-05-07T15:09:42;18.00;99.90
2226;DHT22;1119;48.288;8.726;2023-05-07T15:12:32;18.00;99.90
2226;DHT22;1119;48.288;8.726;2023-05-07T15:15:20;18.00;99.90
2226;DHT22;1119;48.288;8.726;2023-05-07T15:18:08;18.00;99.90
2226;DHT22;1119;48.288;8.726;2023-05-07T15:20:56;17.90;99.90
2226;DHT22;1119;48.288;8.726;2023-05-07T15:23:44;17.90;99.90
2226;DHT22;1119;48.288;8.726;2023-05-07T15:26:34;18.00;99.90
2226;DHT22;1119;48.288;8.726;2023-05-07T15:29:23;18.00;99.90
2226;DHT22;1119;48.288;8.726;2023-05-07T15:32:16;18.10;99.90
2226;DHT22;1119;48.288;8.726;2023-05-07T15:35:07;18.00;99.90
2226;DHT22;1119;48.288;8.726;2023-05-07T15:37:56;18.00;99.90
2226;DHT22;1119;48.288;8.726;2023-05-07T15:40:44;18.00;99.90
2226;DHT22;1119;48.288;8.726;2023-05-07T15:43:31;18.00;99.90
2226;DHT22;1119;48.288;8.726;2023-05-07T15:46:22;17.90;99.90
2226;DHT22;1119;48.288;8.726;2023-05-07T15:49:10;17.90;99.90
2226;DHT22;1119;48.288;8.726;2023-05-07T15:51:58;17.90;99.90
2226;DHT22;1119;48.288;8.726;2023-05-07T15:54:46;17.60;99.90
2226;DHT22;1119;48.288;8.726;2023-05-07T15:57:33;17.50;99.90
2226;DHT22;1119;48.288;8.726;2023-05-07T16:00:21;17.30;99.90
2226;DHT22;1119;48.288;8.726;2023-05-07T16:03:11;17.00;99.90
2226;DHT22;1119;48.288;8.726;2023-05-07T16:05:58;16.90;99.90
2226;DHT22;1119;48.288;8.726;2023-05-07T16:08:47;16.80;99.90
2226;DHT22;1119;48.288;8.726;2023-05-07T16:11:35;16.70;99.90
2226;DHT22;1119;48.288;8.726;2023-05-07T16:14:23;16.60;99.90
2226;DHT22;1119;48.288;8.726;2023-05-07T16:17:11;16.60;99.90
2226;DHT22;1119;48.288;8.726;2023-05-07T16:20:00;16.70;99.90
2226;DHT22;1119;48.288;8.726;2023-05-07T16:22:51;16.80;99.90
2226;DHT22;1119;48.288;8.726;2023-05-07T16:25:41;16.80;99.90
2226;DHT22;1119;48.288;8.726;2023-05-07T16:28:28;16.90;99.90
2226;DHT22;1119;48.288;8.726;2023-05-07T16:31:17;17.00;99.90
2226;DHT22;1119;48.288;8.726;2023-05-07T16:34:04;17.00;99.90
2226;DHT22;1119;48.288;8.726;2023-05-07T16:36:53;17.10;99.90
2226;DHT22;1119;48.288;8.726;2023-05-07T16:39:42;17.20;99.90
2226;DHT22;1119;48.288;8.726;2023-05-07T16:42:30;17.20;99.90
2226;DHT22;1119;48.288;8.726;2023-05-07T16:45:18;17.30;99.90
2226;DHT22;1119;48.288;8.726;2023-05-07T16:48:06;17.30;99.90
2226;DHT22;1119;48.288;8.726;2023-05-07T16:50:54;17.30;99.90
2226;DHT22;1119;48.288;8.726;2023-05-07T16:53:43;17.20;99.90
2226;DHT22;1119;48.288;8.726;2023-05-07T16:56:31;17.10;99.90
2226;DHT22;1119;48.288;8.726;2023-05-07T16:59:19;17.30;99.90
2226;DHT22;1119;48.288;8.726;2023-05-07T17:02:08;17.30;99.90
2226;DHT22;1119;48.288;8.726;2023-05-07T17:04:56;17.40;99.90
2226;DHT22;1119;48.288;8.726;2023-05-07T17:07:43;17.40;99.90
2226;DHT22;1119;48.288;8.726;2023-05-07T17:10:33;17.40;99.90
2226;DHT22;1119;48.288;8.726;2023-05-07T17:13:20;17.40;99.90
2226;DHT22;1119;48.288;8.726;2023-05-07T17:16:08;17.40;99.90
2226;DHT22;1119;48.288;8.726;2023-05-07T17:18:56;17.40;99.90
2226;DHT22;1119;48.288;8.726;2023-05-07T17:21:44;17.50;99.90
2226;DHT22;1119;48.288;8.726;2023-05-07T17:24:31;17.40;99.90
2226;DHT22;1119;48.288;8.726;2023-05-07T17:27:20;17.40;99.90
2226;DHT22;1119;48.288;8.726;2023-05-07T17:30:09;17.40;99.90
2226;DHT22;1119;48.288;8.726;2023-05-07T17:32:57;17.40;99.90
2226;DHT22;1119;48.288;8.726;2023-05-07T17:35:45;17.40;99.90
2226;DHT22;1119;48.288;8.726;2023-05-07T17:38:33;17.30;99.90
2226;DHT22;1119;48.288;8.726;2023-05-07T17:41:21;17.30;99.90
2226;DHT22;1119;48.288;8.726;2023-05-07T17:44:10;17.30;99.90
2226;DHT22;1119;48.288;8.726;2023-05-07T17:46:58;17.30;99.90
2226;DHT22;1119;48.288;8.726;2023-05-07T17:49:46;17.40;99.90
2226;DHT22;1119;48.288;8.726;2023-05-07T17:52:34;17.40;99.90
2226;DHT22;1119;48.288;8.726;2023-05-07T17:55:22;17.40;99.90
2226;DHT22;1119;48.288;8.726;2023-05-07T17:58:10;17.40;99.90
2226;DHT22;1119;48.288;8.726;2023-05-07T18:01:00;17.30;99.90
2226;DHT22;1119;48.288;8.726;2023-05-07T18:03:47;17.20;99.90
2226;DHT22;1119;48.288;8.726;2023-05-07T18:06:35;17.20;99.90
2226;DHT22;1119;48.288;8.726;2023-05-07T18:09:24;17.20;99.90
2226;DHT22;1119;48.288;8.726;2023-05-07T18:12:11;17.20;99.90
2226;DHT22;1119;48.288;8.726;2023-05-07T18:14:59;17.20;99.90
2226;DHT22;1119;48.288;8.726;2023-05-07T18:17:48;17.20;99.90
2226;DHT22;1119;48.288;8.726;2023-05-07T18:20:36;17.20;99.90
2226;DHT22;1119;48.288;8.726;2023-05-07T18:23:24;17.20;99.90
2226;DHT22;1119;48.288;8.726;2023-05-07T18:26:12;17.20;99.90
2226;DHT22;1119;48.288;8.726;2023-05-07T18:29:00;17.20;99.90